ETHC

Celle Airport

Germany
METAR ETHC 220220Z 05006KT 9999 SCT300 13/05 Q1014 BLU+
Observed Flight Rules
May-22 @ 02:20 UTC (19 minutes ago) Visual Flight Rules
Wind Visibility Clouds
50° at 6 knots 10,000+ meters
  • Scattered at 30,000' AGL
Temperatures Readings
Current 13°C / 55°F
Dewpoint 5°C / 41°F
Humidity 59%
Altimeter 29.94" Hg
Pressure 1014 hPa
Elevation 52
METAR ETHC 220220Z 05006KT 9999 SCT300 13/05 Q1014 BLU+
Observed Flight Rules
May-22 @ 02:20 UTC
(19 minutes ago)
VFR
Wind Visibility
50° at 6 knots 10,000+ meters
Clouds
  • Scattered at 30,000' AGL
Temperature Dewpoint
13°C / 55°F 5°C / 41°F
Humidity Altimeter Pressure
59% 29.94" Hg 1014 hPa